Time;durP1;ratioP1;P1;durP2;ratioP2;P2;SDS_P1;SDS_P2;PMS_P1;PMS_P2;Temp;Humidity;BMP_temperature;BMP_pressure;BME280_temperature;BME280_humidity;BME280_pressure;Samples;Min_cycle;Max_cycle;Signal;HPM_P1;HPM_P2
2021/07/31 00:01:15;;;;;;;6.78;5.03;;;;;;;25.02;55.02;99414.47;4963432;28;20039;-77
2021/07/31 00:03:43;;;;;;;5.63;5.07;;;;;;;25.11;54.60;99412.56;4947250;28;20508;-77
2021/07/31 00:06:27;;;;;;;5.18;4.68;;;;;;;25.17;54.75;99419.78;4955841;28;20055;-77
2021/07/31 00:08:53;;;;;;;5.05;4.57;;;;;;;25.23;54.11;99426.19;4955447;28;20043;-77
2021/07/31 00:11:20;;;;;;;7.85;4.78;;;;;;;25.19;53.98;99422.25;4955190;28;20122;-76
2021/07/31 00:13:47;;;;;;;5.90;4.72;;;;;;;25.10;54.22;99418.09;4955121;29;20051;-75
2021/07/31 00:16:14;;;;;;;5.70;4.93;;;;;;;25.02;54.56;99413.66;4955230;29;20039;-76
2021/07/31 00:18:41;;;;;;;6.38;4.78;;;;;;;25.02;54.35;99411.81;4955257;29;20039;-75
2021/07/31 00:21:08;;;;;;;12.02;5.55;;;;;;;24.95;54.55;99413.59;4955469;29;20404;-76
2021/07/31 00:23:35;;;;;;;5.18;4.68;;;;;;;24.96;54.13;99409.91;4961130;28;20039;-77
2021/07/31 00:26:02;;;;;;;10.10;5.45;;;;;;;24.97;54.20;99408.06;4973916;28;20074;-74
2021/07/31 00:28:29;;;;;;;8.40;5.75;;;;;;;24.87;54.89;99408.38;4972419;28;20041;-76
2021/07/31 00:30:55;;;;;;;5.25;4.70;;;;;;;24.93;55.04;99414.78;4974208;28;20046;-77
2021/07/31 00:33:22;;;;;;;7.20;4.95;;;;;;;24.85;55.07;99412.25;4974319;28;20383;-76
2021/07/31 00:35:49;;;;;;;6.75;4.93;;;;;;;24.69;55.68;99423.97;4974316;28;20053;-76
2021/07/31 00:38:16;;;;;;;5.80;5.20;;;;;;;24.73;55.47;99426.06;4973901;28;20101;-76
2021/07/31 00:40:42;;;;;;;6.68;4.20;;;;;;;24.77;55.16;99422.03;4974154;28;20064;-77
2021/07/31 00:43:09;;;;;;;5.60;5.00;;;;;;;24.63;55.60;99427.38;4974441;28;20125;-77
2021/07/31 00:45:36;;;;;;;5.22;4.72;;;;;;;24.77;55.52;99423.88;4973870;28;20156;-77
2021/07/31 00:48:05;;;;;;;7.57;5.43;;;;;;;24.78;55.14;99426.34;4941057;28;20066;-77
2021/07/31 00:50:34;;;;;;;9.10;4.75;;;;;;;24.68;55.88;99425.81;4957189;28;20054;-76
2021/07/31 00:53:00;;;;;;;6.55;5.55;;;;;;;24.81;55.12;99427.78;4970691;28;20051;-77
2021/07/31 00:55:29;;;;;;;5.97;5.35;;;;;;;24.80;54.80;99426.13;4956205;28;20038;-77
2021/07/31 00:57:57;;;;;;;6.32;4.88;;;;;;;24.77;55.32;99431.88;4969949;28;20039;-76
2021/07/31 01:00:32;;;;;;;5.53;5.03;;;;;;;24.59;56.25;99431.44;4939296;28;20064;-76
2021/07/31 01:02:59;;;;;;;6.57;5.07;;;;;;;24.61;56.14;99437.38;4937424;29;20146;-77
2021/07/31 01:05:26;;;;;;;7.18;5.25;;;;;;;24.66;56.02;99437.66;4957338;28;20050;-77
2021/07/31 01:07:53;;;;;;;6.78;4.72;;;;;;;24.69;55.32;99442.63;4954597;29;20434;-75
2021/07/31 01:10:22;;;;;;;6.03;5.43;;;;;;;24.74;55.24;99433.06;4936782;29;20075;-77
2021/07/31 01:12:51;;;;;;;6.38;5.15;;;;;;;24.68;55.04;99432.97;4950271;28;20085;-76
2021/07/31 01:15:18;;;;;;;5.78;5.18;;;;;;;24.74;55.26;99426.91;4956230;28;20061;-76
2021/07/31 01:17:45;;;;;;;7.60;4.78;;;;;;;24.79;54.93;99424.50;4956099;28;20049;-75
2021/07/31 01:20:12;;;;;;;7.35;5.40;;;;;;;24.92;54.50;99435.28;4954880;29;20443;-75
2021/07/31 01:22:43;;;;;;;6.18;5.05;;;;;;;24.85;54.69;99433.56;4936951;29;20130;-76
2021/07/31 01:25:11;;;;;;;5.40;4.90;;;;;;;24.59;55.94;99439.41;4954519;28;20057;-75
2021/07/31 01:27:41;;;;;;;13.00;4.93;;;;;;;24.63;55.50;99438.03;4954825;28;20442;-75
2021/07/31 01:30:09;;;;;;;7.13;5.35;;;;;;;24.65;55.84;99439.50;4955187;28;20043;-75
2021/07/31 01:32:36;;;;;;;5.57;4.93;;;;;;;24.56;55.93;99436.13;4954978;28;20050;-75
2021/07/31 01:35:04;;;;;;;8.30;4.82;;;;;;;24.45;56.03;99436.63;4956038;28;20105;-75
2021/07/31 01:37:33;;;;;;;6.10;5.15;;;;;;;24.62;55.64;99433.72;4973700;28;20066;-76
2021/07/31 01:40:03;;;;;;;6.20;5.13;;;;;;;24.71;54.77;99425.41;4955919;28;20050;-76
2021/07/31 01:42:29;;;;;;;7.50;5.25;;;;;;;24.77;54.65;99427.34;4973551;28;20175;-76
2021/07/31 01:44:58;;;;;;;6.18;5.57;;;;;;;24.76;54.69;99430.19;4973435;28;20070;-77
2021/07/31 01:47:26;;;;;;;6.72;5.15;;;;;;;24.71;54.67;99424.59;4956227;28;20437;-76
2021/07/31 01:49:54;;;;;;;7.78;4.97;;;;;;;24.47;55.45;99425.75;4955854;28;20520;-76
2021/07/31 01:52:22;;;;;;;10.07;5.30;;;;;;;24.62;55.25;99437.22;4955720;28;20051;-77
2021/07/31 01:54:49;;;;;;;5.53;4.97;;;;;;;24.54;55.59;99432.81;4956234;28;20506;-77
2021/07/31 01:57:16;;;;;;;5.13;4.40;;;;;;;24.63;54.88;99443.38;4956269;28;20133;-76
2021/07/31 02:00:03;;;;;;;6.78;4.72;;;;;;;24.51;54.99;99438.53;4973317;28;20057;-76
2021/07/31 02:02:40;;;;;;;9.68;5.15;;;;;;;24.68;53.45;99438.31;4983226;28;20046;-76
2021/07/31 02:05:11;;;;;;;7.22;5.93;;;;;;;24.69;53.30;99439.97;4955888;28;20054;-77
2021/07/31 02:08:06;;;;;;;5.57;4.95;;;;;;;24.58;53.92;99429.78;4963964;28;20047;-76
2021/07/31 02:10:47;;;;;;;7.10;4.85;;;;;;;24.78;54.36;99430.84;4955821;28;20074;-76
2021/07/31 02:13:16;;;;;;;7.80;4.70;;;;;;;24.52;54.50;99429.50;4955597;28;20051;-76
2021/07/31 02:15:45;;;;;;;11.52;5.22;;;;;;;24.36;54.04;99420.91;4956055;28;20164;-76
2021/07/31 02:18:16;;;;;;;6.28;4.25;;;;;;;24.26;54.72;99421.16;4955596;28;20098;-76
2021/07/31 02:20:44;;;;;;;9.25;5.10;;;;;;;24.33;54.07;99422.06;4973802;28;20121;-76
2021/07/31 02:23:31;;;;;;;4.85;4.32;;;;;;;24.28;53.32;99414.63;4976026;28;20062;-76
2021/07/31 02:26:16;;;;;;;4.97;4.30;;;;;;;24.33;53.72;99414.06;4976830;28;20058;-76
2021/07/31 02:28:58;;;;;;;4.93;4.38;;;;;;;24.16;53.37;99407.28;4959074;28;20497;-76
2021/07/31 02:31:26;;;;;;;4.60;4.20;;;;;;;24.24;51.77;99410.69;4976747;28;20105;-77
2021/07/31 02:33:53;;;;;;;4.60;4.10;;;;;;;24.42;51.06;99407.66;4958954;28;20046;-76
2021/07/31 02:36:23;;;;;;;12.50;5.35;;;;;;;24.33;51.73;99407.91;4979754;28;20069;-76
2021/07/31 02:39:03;;;;;;;8.13;3.97;;;;;;;24.23;51.46;99410.88;4962833;28;20576;-76
2021/07/31 02:41:32;;;;;;;8.05;4.30;;;;;;;24.00;52.15;99403.81;4945645;28;20070;-74
2021/07/31 02:44:03;;;;;;;5.20;4.70;;;;;;;23.91;52.60;99401.41;4958480;28;20195;-75
2021/07/31 02:46:31;;;;;;;6.47;4.20;;;;;;;24.09;52.07;99398.41;4958920;28;20051;-75
2021/07/31 02:48:58;;;;;;;5.55;3.67;;;;;;;23.99;52.04;99398.69;4976340;28;20049;-75
2021/07/31 02:51:26;;;;;;;5.82;4.20;;;;;;;24.05;52.22;99403.25;4958765;28;20050;-75
2021/07/31 02:54:21;;;;;;;5.45;4.65;;;;;;;24.04;50.74;99401.63;4958977;28;20094;-77
2021/07/31 02:56:48;;;;;;;5.10;3.35;;;;;;;23.86;51.79;99395.81;4976174;28;20045;-75
2021/07/31 02:59:17;;;;;;;3.75;3.25;;;;;;;23.49;52.85;99395.66;4959076;28;20441;-75
2021/07/31 03:01:44;;;;;;;4.05;3.55;;;;;;;23.43;53.31;99393.69;4975996;28;20039;-75
2021/07/31 03:04:12;;;;;;;7.85;3.67;;;;;;;23.42;53.23;99386.72;4975114;28;20401;-75
2021/07/31 03:06:42;;;;;;;4.78;4.35;;;;;;;23.41;52.91;99385.09;4975293;28;20073;-74
2021/07/31 03:09:11;;;;;;;5.32;4.35;;;;;;;23.38;53.53;99387.28;4959757;28;20098;-77
2021/07/31 03:11:40;;;;;;;6.97;4.90;;;;;;;23.48;52.72;99387.84;4945832;28;20050;-77
2021/07/31 03:14:07;;;;;;;6.00;4.05;;;;;;;23.44;51.92;99386.56;4975744;28;20047;-75
2021/07/31 03:16:38;;;;;;;7.60;4.97;;;;;;;23.67;55.48;99392.69;4975584;28;20038;-76
2021/07/31 03:19:05;;;;;;;5.82;5.22;;;;;;;23.80;54.58;99397.38;4975464;28;20077;-76
2021/07/31 03:21:34;;;;;;;7.45;6.80;;;;;;;23.77;56.55;99392.44;4965925;28;20074;-75
2021/07/31 03:24:13;;;;;;;8.05;7.28;;;;;;;23.00;59.15;99395.22;4939080;29;20054;-76
2021/07/31 03:26:39;;;;;;;10.68;7.78;;;;;;;22.99;59.46;99404.19;4951074;28;20062;-76
2021/07/31 03:29:11;;;;;;;10.07;8.63;;;;;;;22.72;60.83;99398.38;4958242;28;20054;-75
2021/07/31 03:31:38;;;;;;;14.38;9.82;;;;;;;22.58;61.26;99399.09;4975740;28;20043;-76
2021/07/31 03:34:06;;;;;;;14.35;9.07;;;;;;;22.65;61.57;99401.91;4974672;28;20504;-75
2021/07/31 03:36:33;;;;;;;15.95;10.98;;;;;;;22.67;62.31;99406.03;4957944;28;20051;-76
2021/07/31 03:39:04;;;;;;;14.23;11.38;;;;;;;22.58;62.77;99400.94;4974816;28;20130;-76
2021/07/31 03:41:37;;;;;;;12.07;10.68;;;;;;;22.62;62.34;99391.63;4975385;28;20067;-76
2021/07/31 03:44:06;;;;;;;10.75;8.73;;;;;;;22.57;61.30;99380.69;4953933;28;20066;-76
2021/07/31 03:46:43;;;;;;;9.95;7.47;;;;;;;22.48;61.36;99391.38;4975162;28;20058;-76
2021/07/31 03:49:12;;;;;;;11.00;8.80;;;;;;;22.57;61.04;99383.34;4958026;28;20101;-76
2021/07/31 03:51:41;;;;;;;11.68;9.35;;;;;;;22.48;61.24;99369.31;4975160;28;20468;-76
2021/07/31 03:54:09;;;;;;;12.10;7.93;;;;;;;22.52;60.84;99380.38;4975170;28;20050;-76
2021/07/31 03:56:36;;;;;;;7.78;6.75;;;;;;;22.23;60.70;99371.25;4951803;28;20047;-76
2021/07/31 03:59:10;;;;;;;6.88;6.05;;;;;;;22.18;60.36;99373.59;4969629;28;20418;-77
2021/07/31 04:01:37;;;;;;;7.22;5.63;;;;;;;22.46;58.98;99372.13;4973025;28;20503;-77
2021/07/31 04:04:06;;;;;;;9.63;6.30;;;;;;;22.38;58.42;99368.69;4973938;28;20055;-77
2021/07/31 04:06:33;;;;;;;9.35;5.75;;;;;;;22.39;58.25;99373.81;4950130;28;20053;-76
2021/07/31 04:09:18;;;;;;;7.40;5.10;;;;;;;22.31;58.57;99379.16;4965651;28;20175;-77
2021/07/31 04:12:04;;;;;;;10.40;5.13;;;;;;;22.25;58.65;99379.03;4973724;28;20058;-76
2021/07/31 04:14:49;;;;;;;10.50;5.85;;;;;;;22.36;58.18;99381.28;4968917;28;20495;-77
2021/07/31 04:17:17;;;;;;;16.10;5.68;;;;;;;22.32;58.37;99379.97;4969152;28;20051;-77
2021/07/31 04:19:45;;;;;;;7.68;5.05;;;;;;;22.29;58.78;99381.16;4951989;28;20045;-77
2021/07/31 04:22:12;;;;;;;6.10;5.03;;;;;;;22.40;57.65;99388.75;4972772;28;20042;-77
2021/07/31 04:24:41;;;;;;;7.35;6.07;;;;;;;22.46;57.16;99390.69;4973141;28;20117;-76
2021/07/31 04:27:09;;;;;;;6.55;4.68;;;;;;;22.35;57.44;99401.72;4969277;28;20375;-77
2021/07/31 04:29:36;;;;;;;7.72;5.45;;;;;;;22.39;57.26;99397.72;4966892;28;20051;-78
2021/07/31 04:32:03;;;;;;;5.82;4.43;;;;;;;22.52;56.74;99397.16;4966417;28;20050;-75
2021/07/31 04:34:30;;;;;;;6.22;5.25;;;;;;;22.52;57.01;99391.00;4965573;28;20035;-75
2021/07/31 04:36:57;;;;;;;6.15;4.90;;;;;;;22.65;56.78;99396.59;4970725;28;20481;-76
2021/07/31 04:39:28;;;;;;;6.93;4.47;;;;;;;22.69;56.64;99403.19;4967599;28;20133;-80
2021/07/31 04:41:56;;;;;;;8.35;4.78;;;;;;;22.63;56.84;99407.38;4971652;28;20117;-80
2021/07/31 04:44:24;;;;;;;9.35;4.68;;;;;;;22.73;56.35;99399.19;4968738;28;20114;-77
2021/07/31 04:46:50;;;;;;;11.07;4.97;;;;;;;23.02;55.21;99397.72;4969804;28;20038;-79
2021/07/31 04:49:17;;;;;;;9.63;5.75;;;;;;;23.16;55.43;99396.94;4952004;28;20387;-76
2021/07/31 04:51:44;;;;;;;10.75;6.10;;;;;;;23.23;56.13;99389.91;4968520;28;20054;-76
2021/07/31 04:54:11;;;;;;;8.18;4.97;;;;;;;23.31;56.29;99386.34;4969948;28;20043;-76
2021/07/31 04:56:41;;;;;;;8.13;5.07;;;;;;;23.49;56.33;99378.88;4970361;28;20053;-76
2021/07/31 04:59:08;;;;;;;12.50;7.43;;;;;;;23.56;56.43;99393.09;4971450;28;20043;-74
2021/07/31 05:01:38;;;;;;;9.57;6.70;;;;;;;23.90;56.24;99395.25;4969021;28;20066;-76
2021/07/31 05:04:05;;;;;;;12.32;7.25;;;;;;;24.01;56.01;99393.97;4970229;28;20519;-77
2021/07/31 05:06:32;;;;;;;6.90;5.68;;;;;;;24.17;56.16;99382.31;4969657;28;20067;-76
2021/07/31 05:08:59;;;;;;;12.57;6.30;;;;;;;24.19;56.58;99378.47;4968214;28;20043;-77
2021/07/31 05:11:35;;;;;;;11.82;6.30;;;;;;;24.10;57.88;99381.41;4969018;28;20398;-76
2021/07/31 05:14:28;;;;;;;9.02;6.03;;;;;;;24.12;58.17;99382.03;4923186;28;20506;-76
2021/07/31 05:16:56;;;;;;;9.63;5.95;;;;;;;24.17;59.12;99380.47;4969506;28;20485;-77
2021/07/31 05:19:23;;;;;;;9.13;7.35;;;;;;;24.39;59.16;99386.72;4967976;28;20046;-77
2021/07/31 05:21:53;;;;;;;14.13;8.07;;;;;;;24.60;59.25;99383.28;4968838;28;20035;-74
2021/07/31 05:24:20;;;;;;;11.80;8.18;;;;;;;24.80;59.30;99380.84;4966353;28;20541;-77
2021/07/31 05:26:47;;;;;;;19.50;7.45;;;;;;;24.92;59.86;99381.16;4970256;28;20039;-76
2021/07/31 05:29:14;;;;;;;14.13;8.45;;;;;;;24.96;60.14;99377.91;4951949;28;20089;-76
2021/07/31 05:31:41;;;;;;;11.70;8.18;;;;;;;25.19;60.03;99376.91;4952200;28;20051;-75
2021/07/31 05:34:08;;;;;;;13.10;10.75;;;;;;;25.42;60.06;99371.38;4968330;28;20061;-76
2021/07/31 05:36:37;;;;;;;13.38;11.57;;;;;;;25.73;59.18;99368.31;4968810;28;20039;-74
2021/07/31 05:39:04;;;;;;;15.10;11.40;;;;;;;26.03;58.40;99375.06;4967563;28;20054;-73
2021/07/31 05:41:30;;;;;;;13.02;10.95;;;;;;;26.09;59.19;99382.28;4966719;28;20529;-74
2021/07/31 05:43:57;;;;;;;14.75;11.57;;;;;;;26.26;57.70;99385.47;4969521;28;20053;-76
2021/07/31 05:46:24;;;;;;;12.57;11.27;;;;;;;26.42;57.83;99386.16;4966486;28;20516;-74
2021/07/31 05:48:52;;;;;;;14.73;11.77;;;;;;;26.54;57.71;99387.25;4966045;28;20131;-75
2021/07/31 05:51:19;;;;;;;11.75;10.55;;;;;;;26.78;56.20;99383.19;4968505;28;20063;-73
2021/07/31 05:53:46;;;;;;;12.93;10.57;;;;;;;26.80;55.76;99381.16;4964557;28;20050;-73
2021/07/31 05:56:13;;;;;;;12.35;9.00;;;;;;;26.97;55.38;99386.94;4962440;28;20049;-73
2021/07/31 05:58:40;;;;;;;11.93;9.50;;;;;;;26.87;56.08;99387.31;4974319;28;20039;-74
2021/07/31 06:01:07;;;;;;;10.15;8.65;;;;;;;26.96;54.80;99385.28;4968896;28;20039;-75
2021/07/31 06:03:38;;;;;;;12.40;9.68;;;;;;;27.05;55.50;99395.56;4966659;28;20098;-74
2021/07/31 06:06:05;;;;;;;11.70;9.10;;;;;;;27.19;54.92;99396.44;4963475;28;20050;-75
2021/07/31 06:08:36;;;;;;;13.35;10.25;;;;;;;27.15;54.80;99397.88;4974564;28;20058;-74
2021/07/31 06:11:05;;;;;;;12.57;10.32;;;;;;;27.01;55.23;99404.22;4973284;28;20059;-75
2021/07/31 06:13:33;;;;;;;10.95;9.82;;;;;;;27.29;53.79;99401.41;4979186;28;20122;-73
2021/07/31 06:16:00;;;;;;;13.25;10.00;;;;;;;27.43;53.70;99389.66;4970322;28;20436;-74
2021/07/31 06:18:27;;;;;;;17.40;10.27;;;;;;;27.56;52.89;99397.69;4975200;28;20410;-74
2021/07/31 06:20:54;;;;;;;13.65;10.15;;;;;;;27.48;52.94;99399.72;4975040;28;20054;-74
2021/07/31 06:23:21;;;;;;;14.05;10.32;;;;;;;27.76;52.02;99397.69;4974573;28;20145;-73
2021/07/31 06:25:48;;;;;;;18.15;11.55;;;;;;;27.37;52.97;99419.91;4942363;29;20043;-73
2021/07/31 06:28:14;;;;;;;12.38;9.45;;;;;;;27.39;53.46;99404.50;4974517;28;20051;-74
2021/07/31 06:30:44;;;;;;;10.65;8.80;;;;;;;27.93;51.83;99403.44;4974727;28;20105;-74
2021/07/31 06:33:12;;;;;;;9.38;8.35;;;;;;;27.87;51.49;99396.25;4974367;28;20054;-76
2021/07/31 06:35:39;;;;;;;13.57;8.55;;;;;;;27.72;52.17;99398.31;4974018;28;20548;-72
2021/07/31 06:38:06;;;;;;;11.65;7.55;;;;;;;27.93;51.55;99408.78;4961314;28;20517;-74
2021/07/31 06:40:33;;;;;;;10.60;8.45;;;;;;;27.88;51.63;99401.38;4973788;28;20038;-74
2021/07/31 06:43:00;;;;;;;10.07;8.38;;;;;;;28.02;50.82;99401.31;4974378;28;20378;-74
2021/07/31 06:45:26;;;;;;;11.98;8.43;;;;;;;28.04;51.10;99400.09;4973377;28;20039;-74
2021/07/31 06:47:53;;;;;;;14.68;7.57;;;;;;;28.04;50.87;99389.38;4964585;28;20055;-75
2021/07/31 06:50:21;;;;;;;10.63;7.93;;;;;;;27.96;51.53;99381.56;4955317;28;20046;-74
2021/07/31 06:52:47;;;;;;;16.95;7.75;;;;;;;28.18;50.64;99392.88;4958103;28;20058;-74
2021/07/31 06:55:14;;;;;;;12.07;7.40;;;;;;;28.14;50.88;99389.78;4974374;28;20437;-73
2021/07/31 06:57:41;;;;;;;14.18;7.45;;;;;;;28.04;51.53;99400.09;4974822;28;20142;-75
2021/07/31 07:00:08;;;;;;;11.93;8.40;;;;;;;28.24;50.47;99402.72;4964228;28;20106;-76
2021/07/31 07:02:35;;;;;;;14.75;8.95;;;;;;;28.04;51.40;99401.97;4956383;28;20039;-75
2021/07/31 07:05:05;;;;;;;14.40;10.25;;;;;;;27.97;51.75;99395.81;4964674;28;20137;-75
2021/07/31 07:07:32;;;;;;;11.23;8.20;;;;;;;28.01;51.67;99391.66;4966808;28;20035;-73
2021/07/31 07:09:59;;;;;;;16.23;9.93;;;;;;;28.15;50.78;99390.59;4970254;28;20074;-72
2021/07/31 07:12:26;;;;;;;15.73;8.73;;;;;;;28.04;51.03;99392.06;4968742;28;20051;-73
2021/07/31 07:14:53;;;;;;;11.05;9.35;;;;;;;28.17;50.96;99394.69;4953482;28;20426;-74
2021/07/31 07:17:20;;;;;;;20.13;9.68;;;;;;;28.15;51.20;99395.94;4960921;28;20039;-74
2021/07/31 07:19:47;;;;;;;9.13;8.23;;;;;;;28.24;51.38;99391.19;4956539;28;20043;-75
2021/07/31 07:22:13;;;;;;;9.95;7.55;;;;;;;28.05;51.93;99396.38;4963535;28;20050;-76
2021/07/31 07:24:40;;;;;;;10.68;8.75;;;;;;;27.94;51.39;99394.34;4966026;28;20556;-76
2021/07/31 07:27:07;;;;;;;9.95;8.57;;;;;;;27.96;51.51;99402.19;4955898;29;20054;-77
2021/07/31 07:29:34;;;;;;;15.65;8.15;;;;;;;28.00;51.74;99398.88;4962617;28;20034;-76
2021/07/31 07:32:04;;;;;;;11.02;8.60;;;;;;;28.14;51.25;99395.13;4974244;28;20047;-76
2021/07/31 07:34:31;;;;;;;10.43;8.45;;;;;;;27.63;51.95;99390.47;4963499;28;20044;-76
2021/07/31 07:36:58;;;;;;;13.98;9.98;;;;;;;27.55;52.52;99390.69;4955736;28;20044;-75
2021/07/31 07:39:25;;;;;;;19.98;8.88;;;;;;;27.47;52.96;99382.84;4955011;29;20039;-76
2021/07/31 07:41:51;;;;;;;16.17;9.07;;;;;;;27.58;51.87;99382.22;4955386;28;20047;-75
2021/07/31 07:44:18;;;;;;;12.18;8.52;;;;;;;27.74;51.97;99383.69;4938066;29;20047;-76
2021/07/31 07:46:45;;;;;;;13.55;9.65;;;;;;;27.93;51.08;99388.19;4956085;29;20047;-76
2021/07/31 07:49:12;;;;;;;18.60;10.95;;;;;;;27.49;52.28;99390.69;4955484;28;20126;-76
2021/07/31 07:51:39;;;;;;;12.68;11.13;;;;;;;27.70;51.93;99390.50;4955872;29;20128;-74
2021/07/31 07:54:06;;;;;;;12.13;9.60;;;;;;;27.56;51.37;99392.34;4955434;28;20126;-76
2021/07/31 07:56:32;;;;;;;15.43;10.85;;;;;;;27.76;51.03;99388.84;4955913;29;20050;-73
2021/07/31 07:59:00;;;;;;;10.98;9.82;;;;;;;27.82;50.95;99385.34;4967196;28;20038;-75
2021/07/31 08:01:28;;;;;;;11.80;10.25;;;;;;;27.75;51.06;99388.03;4974843;28;20441;-75
2021/07/31 08:03:57;;;;;;;10.88;9.63;;;;;;;27.84;50.55;99378.72;4975108;28;20446;-75
2021/07/31 08:06:23;;;;;;;12.32;10.30;;;;;;;28.07;50.65;99383.63;4974284;28;20448;-75
2021/07/31 08:08:50;;;;;;;13.25;9.10;;;;;;;28.11;50.45;99389.34;4965268;28;20049;-75
2021/07/31 08:11:17;;;;;;;12.45;10.65;;;;;;;28.10;50.49;99385.03;4955081;28;20111;-76
2021/07/31 08:13:44;;;;;;;11.98;10.20;;;;;;;28.13;49.92;99382.78;4937988;29;20554;-76
2021/07/31 08:16:11;;;;;;;13.35;10.25;;;;;;;27.72;51.90;99376.91;4941970;28;20046;-75
2021/07/31 08:18:38;;;;;;;11.93;9.60;;;;;;;27.93;51.28;99377.47;4957225;28;20457;-75
2021/07/31 08:21:05;;;;;;;12.82;10.98;;;;;;;27.83;51.43;99382.44;4974662;28;20043;-75
2021/07/31 08:23:32;;;;;;;12.45;9.07;;;;;;;28.05;50.83;99380.31;4958919;28;20376;-74
2021/07/31 08:26:02;;;;;;;11.63;9.75;;;;;;;28.18;50.35;99369.56;4962024;28;20113;-75
2021/07/31 08:28:28;;;;;;;15.85;9.82;;;;;;;28.14;50.54;99362.16;4973984;28;20058;-75
2021/07/31 08:30:55;;;;;;;12.85;10.60;;;;;;;28.29;50.13;99370.75;4974833;28;20371;-76
2021/07/31 08:33:22;;;;;;;10.68;8.90;;;;;;;28.21;49.32;99362.94;4974295;28;20047;-75
2021/07/31 08:35:49;;;;;;;13.15;8.95;;;;;;;28.22;49.37;99361.91;4963942;28;20074;-75
2021/07/31 08:38:15;;;;;;;10.13;9.27;;;;;;;28.09;49.80;99362.78;4954591;28;20134;-75
2021/07/31 08:40:42;;;;;;;11.70;10.45;;;;;;;28.07;49.61;99355.97;4954955;28;20039;-76
2021/07/31 08:43:09;;;;;;;11.43;10.20;;;;;;;28.28;49.45;99349.50;4937857;29;20039;-75
2021/07/31 08:45:39;;;;;;;12.73;8.98;;;;;;;28.07;49.61;99351.47;4955297;29;20091;-76
2021/07/31 08:48:06;;;;;;;21.08;10.25;;;;;;;28.16;49.25;99352.03;4937707;29;20047;-76
2021/07/31 08:50:33;;;;;;;11.30;9.63;;;;;;;28.26;49.13;99354.28;4954558;29;20074;-75
2021/07/31 08:53:00;;;;;;;10.55;9.40;;;;;;;28.21;48.64;99352.22;4954954;28;20405;-76
2021/07/31 08:55:26;;;;;;;13.90;8.48;;;;;;;28.15;47.49;99337.81;4967901;28;20046;-77
2021/07/31 08:57:53;;;;;;;15.18;8.27;;;;;;;28.20;47.03;99340.69;4970626;28;20043;-76
2021/07/31 09:00:20;;;;;;;10.07;8.05;;;;;;;28.33;48.60;99334.47;4972045;28;20046;-76
2021/07/31 09:02:48;;;;;;;13.35;9.75;;;;;;;28.43;48.01;99340.19;4972864;28;20062;-75
2021/07/31 09:05:29;;;;;;;9.00;8.13;;;;;;;28.56;47.72;99343.84;4971272;28;20061;-75
2021/07/31 09:08:03;;;;;;;13.82;10.02;;;;;;;28.43;48.23;99336.69;4968106;28;20399;-76
2021/07/31 09:10:32;;;;;;;10.48;9.40;;;;;;;28.07;47.91;99346.13;4967843;28;20050;-76
2021/07/31 09:13:02;;;;;;;9.05;8.20;;;;;;;28.29;47.06;99332.41;4966446;28;20039;-75
2021/07/31 09:15:32;;;;;;;12.30;8.25;;;;;;;28.45;45.93;99332.78;4969573;28;20498;-77
2021/07/31 09:18:31;;;;;;;9.13;7.72;;;;;;;28.65;47.76;99329.94;4969362;28;20045;-76
2021/07/31 09:21:04;;;;;;;9.65;8.38;;;;;;;28.66;46.78;99334.31;4966359;28;20121;-78
2021/07/31 09:23:52;;;;;;;12.70;9.77;;;;;;;28.63;46.88;99318.63;4968624;28;20045;-77
2021/07/31 09:26:25;;;;;;;11.27;8.00;;;;;;;28.71;46.90;99321.06;4940194;28;20046;-76
2021/07/31 09:29:01;;;;;;;;;;;;;;;28.62;46.90;99321.53;4968615;28;20078;-78
2021/07/31 09:31:30;;;;;;;8.95;7.80;;;;;;;28.74;46.07;99321.66;4971781;28;20299;-79
2021/07/31 09:33:59;;;;;;;12.85;8.05;;;;;;;28.71;45.48;99320.25;4976714;28;20042;-79
2021/07/31 09:36:41;;;;;;;12.68;7.80;;;;;;;28.98;45.30;99320.91;4975059;28;20031;-78
2021/07/31 09:39:11;;;;;;;8.77;7.40;;;;;;;28.79;44.97;99319.97;4974539;28;20043;-76
2021/07/31 09:41:40;;;;;;;11.98;8.13;;;;;;;28.75;45.09;99309.88;4974195;28;20045;-78
2021/07/31 09:44:13;;;;;;;8.68;7.82;;;;;;;28.77;45.11;99313.19;4972756;28;20049;-79
2021/07/31 09:46:51;;;;;;;12.75;7.85;;;;;;;28.80;45.00;99308.19;4974503;28;20043;-80
2021/07/31 09:49:20;;;;;;;10.32;7.05;;;;;;;28.76;44.49;99316.88;4955431;28;20039;-75
2021/07/31 09:51:52;;;;;;;12.18;7.65;;;;;;;29.01;43.74;99320.44;4974185;28;20043;-76
2021/07/31 09:54:22;;;;;;;9.10;7.03;;;;;;;28.83;44.94;99312.31;4971317;28;20043;-75
2021/07/31 09:56:51;;;;;;;10.77;8.30;;;;;;;28.94;45.61;99315.16;4974013;28;20039;-76
2021/07/31 09:59:20;;;;;;;7.30;6.55;;;;;;;28.83;44.72;99309.63;4974755;28;20049;-75
2021/07/31 10:02:01;;;;;;;10.85;7.47;;;;;;;29.13;44.76;99296.41;4972090;28;20039;-78
2021/07/31 10:04:28;;;;;;;7.85;6.35;;;;;;;29.26;44.85;99295.47;4970348;28;20074;-76
2021/07/31 10:07:00;;;;;;;12.30;7.55;;;;;;;29.02;44.71;99294.44;4966056;28;20047;-75
2021/07/31 10:09:28;;;;;;;11.52;9.60;;;;;;;28.85;44.32;99297.63;4976295;28;20047;-75
2021/07/31 10:11:56;;;;;;;8.38;6.78;;;;;;;29.06;43.22;99293.78;4966668;28;20043;-80
2021/07/31 10:14:23;;;;;;;15.82;10.13;;;;;;;29.03;44.75;99291.56;4949973;28;20039;-79
2021/07/31 10:16:51;;;;;;;8.95;7.32;;;;;;;29.12;44.89;99295.59;4967842;28;20051;-76
2021/07/31 10:19:18;;;;;;;11.73;7.53;;;;;;;28.95;44.31;99292.63;4973807;28;20035;-79
2021/07/31 10:21:47;;;;;;;14.93;8.07;;;;;;;29.38;44.35;99289.16;4970956;28;20070;-74
2021/07/31 10:24:14;;;;;;;7.35;6.65;;;;;;;29.13;44.11;99285.66;4963144;28;20604;-75
2021/07/31 10:27:14;;;;;;;8.05;7.13;;;;;;;29.12;43.90;99294.75;4969666;28;20038;-74
2021/07/31 10:29:43;;;;;;;7.78;6.82;;;;;;;29.18;44.34;99299.25;4964523;28;20043;-75
2021/07/31 10:32:21;;;;;;;10.55;8.40;;;;;;;29.30;44.35;99291.31;4975988;28;20038;-75
2021/07/31 10:34:53;;;;;;;7.43;6.72;;;;;;;29.50;43.07;99295.41;4975348;28;20035;-73
2021/07/31 10:37:29;;;;;;;11.35;7.22;;;;;;;29.63;42.49;99297.19;4976168;28;20051;-75
2021/07/31 10:40:03;;;;;;;7.85;5.90;;;;;;;29.60;43.02;99276.13;4965782;28;20129;-75
2021/07/31 10:42:51;;;;;;;8.63;6.57;;;;;;;29.37;43.31;99281.31;4977499;28;20497;-75
2021/07/31 10:45:23;;;;;;;7.28;6.57;;;;;;;29.53;41.44;99291.50;4964740;28;20449;-73
2021/07/31 10:47:51;;;;;;;11.25;6.20;;;;;;;29.52;41.47;99284.47;4975647;28;20043;-73
2021/07/31 10:50:26;;;;;;;9.43;6.00;;;;;;;29.71;41.50;99283.44;4975103;28;20378;-74
2021/07/31 10:53:03;;;;;;;7.65;6.72;;;;;;;29.81;41.39;99276.75;4975581;28;20047;-74
2021/07/31 10:55:35;;;;;;;13.45;6.93;;;;;;;29.60;42.61;99270.78;4975959;28;20102;-74
2021/07/31 10:58:08;;;;;;;7.95;6.45;;;;;;;29.42;41.86;99263.50;4976121;28;20043;-73
2021/07/31 11:00:44;;;;;;;10.10;6.60;;;;;;;29.64;42.14;99269.28;4976157;28;20043;-74
2021/07/31 11:03:28;;;;;;;6.88;6.15;;;;;;;29.82;41.60;99259.56;4975680;28;20406;-74
2021/07/31 11:05:55;;;;;;;;;;;;;;;29.86;41.75;99266.94;4976310;28;20054;-74
2021/07/31 11:08:23;;;;;;;8.90;6.03;;;;;;;29.91;41.84;99260.91;4975571;28;19929;-73
2021/07/31 11:11:19;;;;;;;7.88;6.13;;;;;;;29.98;41.65;99270.50;4968425;28;20094;-73
2021/07/31 11:13:45;;;;;;;8.57;6.75;;;;;;;29.99;41.83;99256.06;4945019;28;20402;-74
2021/07/31 11:16:13;;;;;;;8.20;6.43;;;;;;;29.97;41.81;99262.69;4976210;28;20042;-75
2021/07/31 11:18:42;;;;;;;9.85;6.30;;;;;;;29.83;42.29;99248.63;4975377;28;20397;-72
2021/07/31 11:21:09;;;;;;;9.90;5.97;;;;;;;29.83;41.78;99245.94;4976004;28;20409;-73
2021/07/31 11:23:41;;;;;;;15.45;6.22;;;;;;;30.17;41.22;99252.53;4975303;28;20070;-74
2021/07/31 11:26:08;;;;;;;6.03;5.43;;;;;;;30.01;41.09;99242.38;4975705;28;20054;-74
2021/07/31 11:28:36;;;;;;;12.15;7.25;;;;;;;29.94;41.39;99245.16;4957667;28;20078;-75
2021/07/31 11:31:18;;;;;;;9.85;6.13;;;;;;;30.06;41.04;99247.09;4957071;28;20048;-75
2021/07/31 11:34:05;;;;;;;8.32;6.40;;;;;;;30.33;40.15;99245.69;4956251;29;20047;-74
2021/07/31 11:36:33;;;;;;;8.43;5.60;;;;;;;30.35;40.14;99245.44;4959350;28;20086;-73
2021/07/31 11:39:02;;;;;;;10.63;6.15;;;;;;;30.42;40.06;99238.13;4975467;28;20063;-74
2021/07/31 11:41:29;;;;;;;9.95;6.40;;;;;;;30.14;40.78;99230.66;4957503;28;20115;-75